sensor_id;sensor_type;location;lat;lon;timestamp;temperature;humidity
32706;DHT22;19094;50.972;3.538;2024-01-25T00:00:55;12.80;74.10
32706;DHT22;19094;50.972;3.538;2024-01-25T00:03:21;12.80;74.00
32706;DHT22;19094;50.972;3.538;2024-01-25T00:05:47;12.80;74.00
32706;DHT22;19094;50.972;3.538;2024-01-25T00:08:13;12.80;74.10
32706;DHT22;19094;50.972;3.538;2024-01-25T00:10:39;12.80;74.00
32706;DHT22;19094;50.972;3.538;2024-01-25T00:13:05;12.80;73.90
32706;DHT22;19094;50.972;3.538;2024-01-25T00:15:30;12.80;73.90
32706;DHT22;19094;50.972;3.538;2024-01-25T00:17:56;12.80;73.90
32706;DHT22;19094;50.972;3.538;2024-01-25T00:20:22;12.80;73.90
32706;DHT22;19094;50.972;3.538;2024-01-25T00:22:48;12.80;73.90
32706;DHT22;19094;50.972;3.538;2024-01-25T00:25:14;12.80;73.80
32706;DHT22;19094;50.972;3.538;2024-01-25T00:27:39;12.80;73.80
32706;DHT22;19094;50.972;3.538;2024-01-25T00:30:05;12.80;73.70
32706;DHT22;19094;50.972;3.538;2024-01-25T00:32:31;12.80;73.70
32706;DHT22;19094;50.972;3.538;2024-01-25T00:34:57;12.80;73.60
32706;DHT22;19094;50.972;3.538;2024-01-25T00:37:23;12.80;73.80
32706;DHT22;19094;50.972;3.538;2024-01-25T00:39:49;12.80;73.80
32706;DHT22;19094;50.972;3.538;2024-01-25T00:42:16;12.70;73.60
32706;DHT22;19094;50.972;3.538;2024-01-25T00:44:42;12.80;73.70
32706;DHT22;19094;50.972;3.538;2024-01-25T00:47:08;12.70;73.60
32706;DHT22;19094;50.972;3.538;2024-01-25T00:49:35;12.70;73.70
32706;DHT22;19094;50.972;3.538;2024-01-25T00:52:02;12.70;73.70
32706;DHT22;19094;50.972;3.538;2024-01-25T00:54:29;12.70;73.70
32706;DHT22;19094;50.972;3.538;2024-01-25T00:56:55;12.70;73.60
32706;DHT22;19094;50.972;3.538;2024-01-25T00:59:21;12.70;73.70
32706;DHT22;19094;50.972;3.538;2024-01-25T01:01:47;12.70;73.60
32706;DHT22;19094;50.972;3.538;2024-01-25T01:04:16;12.60;73.80
32706;DHT22;19094;50.972;3.538;2024-01-25T01:06:42;12.60;74.00
32706;DHT22;19094;50.972;3.538;2024-01-25T01:09:08;12.60;73.90
32706;DHT22;19094;50.972;3.538;2024-01-25T01:11:34;12.60;74.00
32706;DHT22;19094;50.972;3.538;2024-01-25T01:14:01;12.60;73.90
32706;DHT22;19094;50.972;3.538;2024-01-25T01:16:27;12.60;74.00
32706;DHT22;19094;50.972;3.538;2024-01-25T01:18:56;12.60;74.00
32706;DHT22;19094;50.972;3.538;2024-01-25T01:21:21;12.50;73.90
32706;DHT22;19094;50.972;3.538;2024-01-25T01:23:47;12.50;74.20
32706;DHT22;19094;50.972;3.538;2024-01-25T01:26:13;12.60;73.90
32706;DHT22;19094;50.972;3.538;2024-01-25T01:28:38;12.60;73.90
32706;DHT22;19094;50.972;3.538;2024-01-25T01:31:04;12.60;73.90
32706;DHT22;19094;50.972;3.538;2024-01-25T01:33:30;12.60;73.90
32706;DHT22;19094;50.972;3.538;2024-01-25T01:35:55;12.50;73.90
32706;DHT22;19094;50.972;3.538;2024-01-25T01:38:21;12.50;73.90
32706;DHT22;19094;50.972;3.538;2024-01-25T01:40:47;12.50;73.90
32706;DHT22;19094;50.972;3.538;2024-01-25T01:43:19;12.50;74.00
32706;DHT22;19094;50.972;3.538;2024-01-25T01:45:45;12.40;74.00
32706;DHT22;19094;50.972;3.538;2024-01-25T01:48:11;12.50;74.10
32706;DHT22;19094;50.972;3.538;2024-01-25T01:50:37;12.50;74.20
32706;DHT22;19094;50.972;3.538;2024-01-25T01:53:04;12.50;74.20
32706;DHT22;19094;50.972;3.538;2024-01-25T01:55:30;12.40;74.10
32706;DHT22;19094;50.972;3.538;2024-01-25T01:57:56;12.40;74.10
32706;DHT22;19094;50.972;3.538;2024-01-25T02:00:24;12.50;74.80
32706;DHT22;19094;50.972;3.538;2024-01-25T02:02:50;12.40;74.10
32706;DHT22;19094;50.972;3.538;2024-01-25T02:05:16;12.40;74.10
32706;DHT22;19094;50.972;3.538;2024-01-25T02:07:42;12.40;74.10
32706;DHT22;19094;50.972;3.538;2024-01-25T02:10:09;12.40;74.10
32706;DHT22;19094;50.972;3.538;2024-01-25T02:12:35;12.40;73.90
32706;DHT22;19094;50.972;3.538;2024-01-25T02:15:01;12.40;74.10
32706;DHT22;19094;50.972;3.538;2024-01-25T02:17:26;12.40;74.10
32706;DHT22;19094;50.972;3.538;2024-01-25T02:19:52;12.40;74.00
32706;DHT22;19094;50.972;3.538;2024-01-25T02:22:19;12.40;74.10
32706;DHT22;19094;50.972;3.538;2024-01-25T02:24:45;12.40;74.00
32706;DHT22;19094;50.972;3.538;2024-01-25T02:27:10;12.40;73.80
32706;DHT22;19094;50.972;3.538;2024-01-25T02:29:36;12.40;74.10
32706;DHT22;19094;50.972;3.538;2024-01-25T02:32:02;12.40;74.10
32706;DHT22;19094;50.972;3.538;2024-01-25T02:34:28;12.40;73.90
32706;DHT22;19094;50.972;3.538;2024-01-25T02:36:54;12.30;73.80
32706;DHT22;19094;50.972;3.538;2024-01-25T02:39:19;12.40;73.90
32706;DHT22;19094;50.972;3.538;2024-01-25T02:41:45;12.40;73.80
32706;DHT22;19094;50.972;3.538;2024-01-25T02:44:11;12.30;73.90
32706;DHT22;19094;50.972;3.538;2024-01-25T02:46:37;12.30;73.90
32706;DHT22;19094;50.972;3.538;2024-01-25T02:49:03;12.30;74.00
32706;DHT22;19094;50.972;3.538;2024-01-25T02:51:29;12.30;73.90
32706;DHT22;19094;50.972;3.538;2024-01-25T02:53:55;12.30;74.70
32706;DHT22;19094;50.972;3.538;2024-01-25T02:56:20;12.20;74.00
32706;DHT22;19094;50.972;3.538;2024-01-25T02:58:46;12.30;74.00
32706;DHT22;19094;50.972;3.538;2024-01-25T03:01:12;12.30;74.10
32706;DHT22;19094;50.972;3.538;2024-01-25T03:03:37;12.20;74.00
32706;DHT22;19094;50.972;3.538;2024-01-25T03:06:06;12.20;73.80
32706;DHT22;19094;50.972;3.538;2024-01-25T03:08:32;12.20;74.00
32706;DHT22;19094;50.972;3.538;2024-01-25T03:10:58;12.20;74.10
32706;DHT22;19094;50.972;3.538;2024-01-25T03:13:23;12.20;74.10
32706;DHT22;19094;50.972;3.538;2024-01-25T03:15:49;12.20;73.90
32706;DHT22;19094;50.972;3.538;2024-01-25T03:18:15;12.20;73.90
32706;DHT22;19094;50.972;3.538;2024-01-25T03:20:40;12.20;74.10
32706;DHT22;19094;50.972;3.538;2024-01-25T03:23:06;12.20;73.90
32706;DHT22;19094;50.972;3.538;2024-01-25T03:25:31;12.20;73.80
32706;DHT22;19094;50.972;3.538;2024-01-25T03:27:57;12.20;73.60
32706;DHT22;19094;50.972;3.538;2024-01-25T03:30:23;12.20;73.70
32706;DHT22;19094;50.972;3.538;2024-01-25T03:32:48;12.10;73.60
32706;DHT22;19094;50.972;3.538;2024-01-25T03:35:14;12.10;73.70
32706;DHT22;19094;50.972;3.538;2024-01-25T03:37:40;12.10;74.00
32706;DHT22;19094;50.972;3.538;2024-01-25T03:40:06;12.10;74.20
32706;DHT22;19094;50.972;3.538;2024-01-25T03:42:31;12.10;74.00
32706;DHT22;19094;50.972;3.538;2024-01-25T03:44:57;12.00;74.00
32706;DHT22;19094;50.972;3.538;2024-01-25T03:47:23;12.00;74.10
32706;DHT22;19094;50.972;3.538;2024-01-25T03:49:48;12.10;74.00
32706;DHT22;19094;50.972;3.538;2024-01-25T03:52:14;12.10;73.80
32706;DHT22;19094;50.972;3.538;2024-01-25T03:54:40;12.00;73.90
32706;DHT22;19094;50.972;3.538;2024-01-25T03:57:06;12.00;74.00
32706;DHT22;19094;50.972;3.538;2024-01-25T03:59:31;12.00;73.90
32706;DHT22;19094;50.972;3.538;2024-01-25T04:01:57;12.00;73.90
32706;DHT22;19094;50.972;3.538;2024-01-25T04:04:23;12.00;74.90
32706;DHT22;19094;50.972;3.538;2024-01-25T04:06:48;12.00;74.10
32706;DHT22;19094;50.972;3.538;2024-01-25T04:09:14;12.00;74.00
32706;DHT22;19094;50.972;3.538;2024-01-25T04:11:43;12.00;74.00
32706;DHT22;19094;50.972;3.538;2024-01-25T04:14:09;12.00;74.10
32706;DHT22;19094;50.972;3.538;2024-01-25T04:16:34;12.00;74.10
32706;DHT22;19094;50.972;3.538;2024-01-25T04:19:00;12.00;73.90
32706;DHT22;19094;50.972;3.538;2024-01-25T04:21:26;12.00;74.10
32706;DHT22;19094;50.972;3.538;2024-01-25T04:23:52;11.90;73.80
32706;DHT22;19094;50.972;3.538;2024-01-25T04:26:18;11.90;73.80
32706;DHT22;19094;50.972;3.538;2024-01-25T04:28:43;11.90;73.90
32706;DHT22;19094;50.972;3.538;2024-01-25T04:31:09;11.90;74.10
32706;DHT22;19094;50.972;3.538;2024-01-25T04:33:35;11.90;74.20
32706;DHT22;19094;50.972;3.538;2024-01-25T04:36:01;11.80;74.10
32706;DHT22;19094;50.972;3.538;2024-01-25T04:38:27;11.80;74.10
32706;DHT22;19094;50.972;3.538;2024-01-25T04:40:52;11.80;74.10
32706;DHT22;19094;50.972;3.538;2024-01-25T04:43:18;11.80;74.20
32706;DHT22;19094;50.972;3.538;2024-01-25T04:45:43;11.90;74.10
32706;DHT22;19094;50.972;3.538;2024-01-25T04:48:09;11.80;74.20
32706;DHT22;19094;50.972;3.538;2024-01-25T04:50:35;11.90;74.10
32706;DHT22;19094;50.972;3.538;2024-01-25T04:53:03;11.90;74.10
32706;DHT22;19094;50.972;3.538;2024-01-25T04:55:29;11.90;74.00
32706;DHT22;19094;50.972;3.538;2024-01-25T04:57:55;11.90;74.00
32706;DHT22;19094;50.972;3.538;2024-01-25T05:00:21;11.80;73.90
32706;DHT22;19094;50.972;3.538;2024-01-25T05:02:48;11.80;73.90
32706;DHT22;19094;50.972;3.538;2024-01-25T05:05:13;11.90;74.00
32706;DHT22;19094;50.972;3.538;2024-01-25T05:07:39;11.80;74.10
32706;DHT22;19094;50.972;3.538;2024-01-25T05:10:05;11.80;74.10
32706;DHT22;19094;50.972;3.538;2024-01-25T05:12:31;11.80;74.10
32706;DHT22;19094;50.972;3.538;2024-01-25T05:14:58;11.80;74.10
32706;DHT22;19094;50.972;3.538;2024-01-25T05:17:23;11.80;74.20
32706;DHT22;19094;50.972;3.538;2024-01-25T05:19:49;11.80;74.20
32706;DHT22;19094;50.972;3.538;2024-01-25T05:22:15;11.80;74.10
32706;DHT22;19094;50.972;3.538;2024-01-25T05:24:42;11.80;74.30
32706;DHT22;19094;50.972;3.538;2024-01-25T05:27:07;11.80;74.20
32706;DHT22;19094;50.972;3.538;2024-01-25T05:29:33;11.80;74.10
32706;DHT22;19094;50.972;3.538;2024-01-25T05:31:59;11.70;74.10
32706;DHT22;19094;50.972;3.538;2024-01-25T05:34:24;11.70;74.10
32706;DHT22;19094;50.972;3.538;2024-01-25T05:36:50;11.70;74.30
32706;DHT22;19094;50.972;3.538;2024-01-25T05:39:16;11.70;74.20
32706;DHT22;19094;50.972;3.538;2024-01-25T05:41:42;11.70;74.30
32706;DHT22;19094;50.972;3.538;2024-01-25T05:44:11;11.70;74.20
32706;DHT22;19094;50.972;3.538;2024-01-25T05:46:37;11.70;74.20
32706;DHT22;19094;50.972;3.538;2024-01-25T05:49:02;11.70;74.30
32706;DHT22;19094;50.972;3.538;2024-01-25T05:51:28;11.70;74.10
32706;DHT22;19094;50.972;3.538;2024-01-25T05:53:54;11.70;74.30
32706;DHT22;19094;50.972;3.538;2024-01-25T05:56:19;11.70;74.40
32706;DHT22;19094;50.972;3.538;2024-01-25T05:58:45;11.70;74.40
32706;DHT22;19094;50.972;3.538;2024-01-25T06:01:11;11.70;74.40
32706;DHT22;19094;50.972;3.538;2024-01-25T06:03:36;11.70;74.30
32706;DHT22;19094;50.972;3.538;2024-01-25T06:06:02;11.70;74.20
32706;DHT22;19094;50.972;3.538;2024-01-25T06:08:28;11.70;74.20
32706;DHT22;19094;50.972;3.538;2024-01-25T06:10:53;11.70;74.20
32706;DHT22;19094;50.972;3.538;2024-01-25T06:13:19;11.70;74.20
32706;DHT22;19094;50.972;3.538;2024-01-25T06:15:45;11.70;74.00
32706;DHT22;19094;50.972;3.538;2024-01-25T06:18:10;11.70;74.00
32706;DHT22;19094;50.972;3.538;2024-01-25T06:20:36;11.70;73.80
32706;DHT22;19094;50.972;3.538;2024-01-25T06:23:01;11.70;73.90
32706;DHT22;19094;50.972;3.538;2024-01-25T06:25:27;11.70;73.70
32706;DHT22;19094;50.972;3.538;2024-01-25T06:27:56;11.70;73.90
32706;DHT22;19094;50.972;3.538;2024-01-25T06:30:22;11.70;73.90
32706;DHT22;19094;50.972;3.538;2024-01-25T06:32:48;11.70;73.80
32706;DHT22;19094;50.972;3.538;2024-01-25T06:35:14;11.70;74.00
32706;DHT22;19094;50.972;3.538;2024-01-25T06:37:40;11.70;73.80
32706;DHT22;19094;50.972;3.538;2024-01-25T06:40:06;11.60;73.80
32706;DHT22;19094;50.972;3.538;2024-01-25T06:42:34;11.70;74.30
32706;DHT22;19094;50.972;3.538;2024-01-25T06:44:59;11.60;73.90
32706;DHT22;19094;50.972;3.538;2024-01-25T06:47:25;11.60;73.80
32706;DHT22;19094;50.972;3.538;2024-01-25T06:49:50;11.60;73.70
32706;DHT22;19094;50.972;3.538;2024-01-25T06:52:18;11.60;74.00
32706;DHT22;19094;50.972;3.538;2024-01-25T06:54:44;11.60;74.10
32706;DHT22;19094;50.972;3.538;2024-01-25T06:57:10;11.60;74.10
32706;DHT22;19094;50.972;3.538;2024-01-25T06:59:36;11.60;74.20
32706;DHT22;19094;50.972;3.538;2024-01-25T07:02:01;11.70;74.30
32706;DHT22;19094;50.972;3.538;2024-01-25T07:04:30;11.80;75.60
32706;DHT22;19094;50.972;3.538;2024-01-25T07:06:55;11.80;74.80
32706;DHT22;19094;50.972;3.538;2024-01-25T07:09:21;11.70;74.30
32706;DHT22;19094;50.972;3.538;2024-01-25T07:11:47;11.70;74.40
32706;DHT22;19094;50.972;3.538;2024-01-25T07:14:12;11.70;74.20
32706;DHT22;19094;50.972;3.538;2024-01-25T07:16:38;11.80;74.30
32706;DHT22;19094;50.972;3.538;2024-01-25T07:19:04;11.60;74.10
32706;DHT22;19094;50.972;3.538;2024-01-25T07:21:30;11.50;74.40
32706;DHT22;19094;50.972;3.538;2024-01-25T07:24:03;11.60;75.90
32706;DHT22;19094;50.972;3.538;2024-01-25T07:26:29;12.10;75.50
32706;DHT22;19094;50.972;3.538;2024-01-25T07:28:55;12.10;74.30
32706;DHT22;19094;50.972;3.538;2024-01-25T07:31:27;12.10;73.30
32706;DHT22;19094;50.972;3.538;2024-01-25T07:33:53;12.00;72.60
32706;DHT22;19094;50.972;3.538;2024-01-25T07:36:20;12.00;72.50
32706;DHT22;19094;50.972;3.538;2024-01-25T07:38:46;12.00;72.20
32706;DHT22;19094;50.972;3.538;2024-01-25T07:41:13;12.00;72.20
32706;DHT22;19094;50.972;3.538;2024-01-25T07:43:38;12.00;71.90
32706;DHT22;19094;50.972;3.538;2024-01-25T07:46:04;12.00;72.20
32706;DHT22;19094;50.972;3.538;2024-01-25T07:48:30;11.90;72.20
32706;DHT22;19094;50.972;3.538;2024-01-25T07:50:56;12.00;72.10
32706;DHT22;19094;50.972;3.538;2024-01-25T07:53:22;12.00;72.10
32706;DHT22;19094;50.972;3.538;2024-01-25T07:55:47;12.00;72.10
32706;DHT22;19094;50.972;3.538;2024-01-25T07:58:15;12.00;72.90
32706;DHT22;19094;50.972;3.538;2024-01-25T08:00:41;12.00;73.80
32706;DHT22;19094;50.972;3.538;2024-01-25T08:03:08;12.10;74.10
32706;DHT22;19094;50.972;3.538;2024-01-25T08:05:33;12.00;73.60
32706;DHT22;19094;50.972;3.538;2024-01-25T08:07:59;11.90;73.70
32706;DHT22;19094;50.972;3.538;2024-01-25T08:10:25;11.70;73.40
32706;DHT22;19094;50.972;3.538;2024-01-25T08:12:50;11.70;73.50
32706;DHT22;19094;50.972;3.538;2024-01-25T08:15:16;11.70;73.60
32706;DHT22;19094;50.972;3.538;2024-01-25T08:17:42;11.60;74.30
32706;DHT22;19094;50.972;3.538;2024-01-25T08:20:09;11.60;74.20
32706;DHT22;19094;50.972;3.538;2024-01-25T08:22:36;11.50;74.30
32706;DHT22;19094;50.972;3.538;2024-01-25T08:25:02;11.50;74.50
32706;DHT22;19094;50.972;3.538;2024-01-25T08:27:29;11.50;74.60
32706;DHT22;19094;50.972;3.538;2024-01-25T08:29:55;11.40;74.60
32706;DHT22;19094;50.972;3.538;2024-01-25T08:32:21;11.50;74.90
32706;DHT22;19094;50.972;3.538;2024-01-25T08:34:46;11.50;75.60
32706;DHT22;19094;50.972;3.538;2024-01-25T08:37:12;11.40;75.00
32706;DHT22;19094;50.972;3.538;2024-01-25T08:39:38;11.50;74.90
32706;DHT22;19094;50.972;3.538;2024-01-25T08:42:03;11.50;75.00
32706;DHT22;19094;50.972;3.538;2024-01-25T08:44:32;11.50;75.00
32706;DHT22;19094;50.972;3.538;2024-01-25T08:46:57;11.50;75.20
32706;DHT22;19094;50.972;3.538;2024-01-25T08:49:23;11.40;75.30
32706;DHT22;19094;50.972;3.538;2024-01-25T08:51:49;11.40;75.40
32706;DHT22;19094;50.972;3.538;2024-01-25T08:54:15;11.50;75.20
32706;DHT22;19094;50.972;3.538;2024-01-25T08:56:40;11.50;75.00
32706;DHT22;19094;50.972;3.538;2024-01-25T08:59:06;11.60;74.90
32706;DHT22;19094;50.972;3.538;2024-01-25T09:01:32;11.60;75.70
32706;DHT22;19094;50.972;3.538;2024-01-25T09:03:58;11.60;75.00
32706;DHT22;19094;50.972;3.538;2024-01-25T09:06:28;11.50;75.10
32706;DHT22;19094;50.972;3.538;2024-01-25T09:08:55;11.50;75.50
32706;DHT22;19094;50.972;3.538;2024-01-25T09:11:20;11.50;75.30
32706;DHT22;19094;50.972;3.538;2024-01-25T09:13:46;11.60;75.30
32706;DHT22;19094;50.972;3.538;2024-01-25T09:16:13;11.60;75.20
32706;DHT22;19094;50.972;3.538;2024-01-25T09:18:39;11.60;75.40
32706;DHT22;19094;50.972;3.538;2024-01-25T09:21:05;11.60;75.40
32706;DHT22;19094;50.972;3.538;2024-01-25T09:23:30;11.70;75.20
32706;DHT22;19094;50.972;3.538;2024-01-25T09:25:56;11.70;74.90
32706;DHT22;19094;50.972;3.538;2024-01-25T09:28:22;11.70;74.80
32706;DHT22;19094;50.972;3.538;2024-01-25T09:30:47;11.70;75.60
32706;DHT22;19094;50.972;3.538;2024-01-25T09:33:14;11.70;74.70
32706;DHT22;19094;50.972;3.538;2024-01-25T09:35:39;11.70;75.30
32706;DHT22;19094;50.972;3.538;2024-01-25T09:38:05;11.60;75.60
32706;DHT22;19094;50.972;3.538;2024-01-25T09:40:31;11.50;75.70
32706;DHT22;19094;50.972;3.538;2024-01-25T09:42:58;11.50;76.00
32706;DHT22;19094;50.972;3.538;2024-01-25T09:45:24;11.50;75.90
32706;DHT22;19094;50.972;3.538;2024-01-25T09:47:50;11.50;76.00
32706;DHT22;19094;50.972;3.538;2024-01-25T09:50:16;11.50;76.00
32706;DHT22;19094;50.972;3.538;2024-01-25T09:52:51;11.60;76.10
32706;DHT22;19094;50.972;3.538;2024-01-25T09:55:21;11.50;76.20
32706;DHT22;19094;50.972;3.538;2024-01-25T09:57:51;11.50;76.30
32706;DHT22;19094;50.972;3.538;2024-01-25T10:00:18;11.60;76.10
32706;DHT22;19094;50.972;3.538;2024-01-25T10:02:47;11.60;76.20
32706;DHT22;19094;50.972;3.538;2024-01-25T10:05:15;11.60;76.20
32706;DHT22;19094;50.972;3.538;2024-01-25T10:07:45;11.60;76.30
32706;DHT22;19094;50.972;3.538;2024-01-25T10:10:12;11.60;76.30
32706;DHT22;19094;50.972;3.538;2024-01-25T10:12:42;11.60;76.60
32706;DHT22;19094;50.972;3.538;2024-01-25T10:15:08;11.60;76.60
32706;DHT22;19094;50.972;3.538;2024-01-25T10:17:34;11.60;76.50
32706;DHT22;19094;50.972;3.538;2024-01-25T10:20:00;11.60;76.50
32706;DHT22;19094;50.972;3.538;2024-01-25T10:22:26;11.60;76.50
32706;DHT22;19094;50.972;3.538;2024-01-25T10:24:52;11.70;76.50
32706;DHT22;19094;50.972;3.538;2024-01-25T10:27:20;11.70;76.40
32706;DHT22;19094;50.972;3.538;2024-01-25T10:29:46;11.70;76.70
32706;DHT22;19094;50.972;3.538;2024-01-25T10:32:12;11.70;76.50
32706;DHT22;19094;50.972;3.538;2024-01-25T10:34:39;11.70;76.70
32706;DHT22;19094;50.972;3.538;2024-01-25T10:37:07;11.70;76.70
32706;DHT22;19094;50.972;3.538;2024-01-25T10:39:34;11.80;76.80
32706;DHT22;19094;50.972;3.538;2024-01-25T10:42:00;11.80;76.80
32706;DHT22;19094;50.972;3.538;2024-01-25T10:44:26;11.80;77.40
32706;DHT22;19094;50.972;3.538;2024-01-25T10:46:52;11.80;76.60
32706;DHT22;19094;50.972;3.538;2024-01-25T10:49:20;11.80;76.80
32706;DHT22;19094;50.972;3.538;2024-01-25T10:51:47;11.80;76.90
32706;DHT22;19094;50.972;3.538;2024-01-25T10:54:14;11.80;77.20
32706;DHT22;19094;50.972;3.538;2024-01-25T10:56:45;11.80;77.30
32706;DHT22;19094;50.972;3.538;2024-01-25T10:59:11;11.80;77.60
32706;DHT22;19094;50.972;3.538;2024-01-25T11:01:37;11.80;77.60
32706;DHT22;19094;50.972;3.538;2024-01-25T11:04:12;11.80;77.60
32706;DHT22;19094;50.972;3.538;2024-01-25T11:06:38;11.90;77.40
32706;DHT22;19094;50.972;3.538;2024-01-25T11:09:07;11.90;77.60
32706;DHT22;19094;50.972;3.538;2024-01-25T11:11:35;11.90;77.50
32706;DHT22;19094;50.972;3.538;2024-01-25T11:14:02;11.90;77.40
32706;DHT22;19094;50.972;3.538;2024-01-25T11:16:30;11.90;77.50
32706;DHT22;19094;50.972;3.538;2024-01-25T11:18:58;11.90;77.50
32706;DHT22;19094;50.972;3.538;2024-01-25T11:24:21;12.00;77.40
32706;DHT22;19094;50.972;3.538;2024-01-25T11:26:47;11.90;77.60
32706;DHT22;19094;50.972;3.538;2024-01-25T11:29:21;12.00;77.60
32706;DHT22;19094;50.972;3.538;2024-01-25T11:31:48;12.00;77.50
32706;DHT22;19094;50.972;3.538;2024-01-25T11:34:15;12.00;77.70
32706;DHT22;19094;50.972;3.538;2024-01-25T11:36:42;12.00;77.70
32706;DHT22;19094;50.972;3.538;2024-01-25T11:39:12;12.00;77.50
32706;DHT22;19094;50.972;3.538;2024-01-25T11:41:38;12.00;77.80
32706;DHT22;19094;50.972;3.538;2024-01-25T11:44:04;12.00;77.70
32706;DHT22;19094;50.972;3.538;2024-01-25T11:46:33;12.10;77.40
32706;DHT22;19094;50.972;3.538;2024-01-25T11:48:59;12.10;77.30
32706;DHT22;19094;50.972;3.538;2024-01-25T11:51:24;12.10;77.30
32706;DHT22;19094;50.972;3.538;2024-01-25T11:53:50;12.00;77.80
32706;DHT22;19094;50.972;3.538;2024-01-25T11:56:32;12.00;77.90
32706;DHT22;19094;50.972;3.538;2024-01-25T11:58:59;12.10;77.40
32706;DHT22;19094;50.972;3.538;2024-01-25T12:01:26;12.10;77.70
32706;DHT22;19094;50.972;3.538;2024-01-25T12:03:52;12.10;77.90
32706;DHT22;19094;50.972;3.538;2024-01-25T12:06:18;12.00;77.90
32706;DHT22;19094;50.972;3.538;2024-01-25T12:08:44;12.10;77.70
32706;DHT22;19094;50.972;3.538;2024-01-25T12:11:11;12.20;78.10
32706;DHT22;19094;50.972;3.538;2024-01-25T12:13:41;12.10;77.80
32706;DHT22;19094;50.972;3.538;2024-01-25T12:16:09;12.10;78.10
32706;DHT22;19094;50.972;3.538;2024-01-25T12:18:35;12.10;78.50
32706;DHT22;19094;50.972;3.538;2024-01-25T12:21:02;12.10;78.50
32706;DHT22;19094;50.972;3.538;2024-01-25T12:23:36;12.10;78.50
32706;DHT22;19094;50.972;3.538;2024-01-25T12:26:04;12.10;78.50
32706;DHT22;19094;50.972;3.538;2024-01-25T12:28:30;12.10;78.50
32706;DHT22;19094;50.972;3.538;2024-01-25T12:31:01;12.10;78.60
32706;DHT22;19094;50.972;3.538;2024-01-25T12:33:27;12.20;78.40
32706;DHT22;19094;50.972;3.538;2024-01-25T12:35:53;12.20;78.40
32706;DHT22;19094;50.972;3.538;2024-01-25T12:38:22;12.20;78.30
32706;DHT22;19094;50.972;3.538;2024-01-25T12:40:48;12.20;78.20
32706;DHT22;19094;50.972;3.538;2024-01-25T12:43:15;12.20;78.50
32706;DHT22;19094;50.972;3.538;2024-01-25T12:45:41;12.20;78.50
32706;DHT22;19094;50.972;3.538;2024-01-25T12:48:07;12.20;78.70
32706;DHT22;19094;50.972;3.538;2024-01-25T12:50:37;12.20;78.90
32706;DHT22;19094;50.972;3.538;2024-01-25T12:53:03;12.20;78.90
32706;DHT22;19094;50.972;3.538;2024-01-25T12:55:30;12.20;78.90
32706;DHT22;19094;50.972;3.538;2024-01-25T12:57:56;12.30;78.70
32706;DHT22;19094;50.972;3.538;2024-01-25T13:00:23;12.30;78.80
32706;DHT22;19094;50.972;3.538;2024-01-25T13:02:49;12.30;78.80
32706;DHT22;19094;50.972;3.538;2024-01-25T13:05:15;12.30;78.90
32706;DHT22;19094;50.972;3.538;2024-01-25T13:07:41;12.30;78.60
32706;DHT22;19094;50.972;3.538;2024-01-25T13:10:09;12.30;78.40
32706;DHT22;19094;50.972;3.538;2024-01-25T13:12:37;12.30;78.80
32706;DHT22;19094;50.972;3.538;2024-01-25T13:15:03;12.40;78.30
32706;DHT22;19094;50.972;3.538;2024-01-25T13:17:29;12.40;78.50
32706;DHT22;19094;50.972;3.538;2024-01-25T13:19:57;12.40;78.40
32706;DHT22;19094;50.972;3.538;2024-01-25T13:22:23;12.40;78.60
32706;DHT22;19094;50.972;3.538;2024-01-25T13:24:50;12.40;78.90
32706;DHT22;19094;50.972;3.538;2024-01-25T13:27:16;12.40;78.60
32706;DHT22;19094;50.972;3.538;2024-01-25T13:29:41;12.50;78.40
32706;DHT22;19094;50.972;3.538;2024-01-25T13:32:08;12.40;79.40
32706;DHT22;19094;50.972;3.538;2024-01-25T13:34:34;12.40;78.70
32706;DHT22;19094;50.972;3.538;2024-01-25T13:37:00;12.40;78.80
32706;DHT22;19094;50.972;3.538;2024-01-25T13:39:25;12.50;78.80
32706;DHT22;19094;50.972;3.538;2024-01-25T13:41:51;12.50;78.50
32706;DHT22;19094;50.972;3.538;2024-01-25T13:44:17;12.50;78.70
32706;DHT22;19094;50.972;3.538;2024-01-25T13:46:43;12.50;79.10
32706;DHT22;19094;50.972;3.538;2024-01-25T13:49:09;12.50;79.20
32706;DHT22;19094;50.972;3.538;2024-01-25T13:51:34;12.50;78.90
32706;DHT22;19094;50.972;3.538;2024-01-25T13:54:01;12.50;78.90
32706;DHT22;19094;50.972;3.538;2024-01-25T13:56:26;12.50;79.10
32706;DHT22;19094;50.972;3.538;2024-01-25T13:58:52;12.50;79.40
32706;DHT22;19094;50.972;3.538;2024-01-25T14:01:19;12.50;79.30
32706;DHT22;19094;50.972;3.538;2024-01-25T14:03:45;12.50;79.30
32706;DHT22;19094;50.972;3.538;2024-01-25T14:06:10;12.60;79.10
32706;DHT22;19094;50.972;3.538;2024-01-25T14:08:36;12.60;79.30
32706;DHT22;19094;50.972;3.538;2024-01-25T14:11:03;12.60;79.20
32706;DHT22;19094;50.972;3.538;2024-01-25T14:13:29;12.60;79.00
32706;DHT22;19094;50.972;3.538;2024-01-25T14:15:55;12.60;79.50
32706;DHT22;19094;50.972;3.538;2024-01-25T14:18:21;12.60;79.60
32706;DHT22;19094;50.972;3.538;2024-01-25T14:20:47;12.60;79.30
32706;DHT22;19094;50.972;3.538;2024-01-25T14:23:12;12.60;79.40
32706;DHT22;19094;50.972;3.538;2024-01-25T14:25:38;12.60;79.60
32706;DHT22;19094;50.972;3.538;2024-01-25T14:28:04;12.70;79.20
32706;DHT22;19094;50.972;3.538;2024-01-25T14:30:30;12.70;79.40
32706;DHT22;19094;50.972;3.538;2024-01-25T14:32:55;12.70;79.10
32706;DHT22;19094;50.972;3.538;2024-01-25T14:35:22;12.70;79.00
32706;DHT22;19094;50.972;3.538;2024-01-25T14:37:54;12.70;79.00
32706;DHT22;19094;50.972;3.538;2024-01-25T14:40:21;12.80;79.00
32706;DHT22;19094;50.972;3.538;2024-01-25T14:42:47;12.70;79.40
32706;DHT22;19094;50.972;3.538;2024-01-25T14:45:12;12.70;79.30
32706;DHT22;19094;50.972;3.538;2024-01-25T14:47:38;12.70;79.50
32706;DHT22;19094;50.972;3.538;2024-01-25T14:50:04;12.70;79.30
32706;DHT22;19094;50.972;3.538;2024-01-25T14:52:30;12.70;79.60
32706;DHT22;19094;50.972;3.538;2024-01-25T14:55:00;12.80;79.20
32706;DHT22;19094;50.972;3.538;2024-01-25T14:57:26;12.80;79.20
32706;DHT22;19094;50.972;3.538;2024-01-25T14:59:52;12.80;79.40
32706;DHT22;19094;50.972;3.538;2024-01-25T15:02:18;12.80;79.30
32706;DHT22;19094;50.972;3.538;2024-01-25T15:04:44;12.80;79.40
32706;DHT22;19094;50.972;3.538;2024-01-25T15:07:09;12.80;79.70
32706;DHT22;19094;50.972;3.538;2024-01-25T15:09:35;12.80;79.50
32706;DHT22;19094;50.972;3.538;2024-01-25T15:12:01;12.80;79.40
32706;DHT22;19094;50.972;3.538;2024-01-25T15:14:27;12.80;80.00
32706;DHT22;19094;50.972;3.538;2024-01-25T15:16:52;12.80;79.80
32706;DHT22;19094;50.972;3.538;2024-01-25T15:19:18;12.80;80.10
32706;DHT22;19094;50.972;3.538;2024-01-25T15:21:44;12.80;80.00
32706;DHT22;19094;50.972;3.538;2024-01-25T15:24:09;12.80;80.30
32706;DHT22;19094;50.972;3.538;2024-01-25T15:26:39;12.70;80.10